sensor_id;sensor_type;location;lat;lon;timestamp;pressure;altitude;pressure_sealevel;temperature;humidity
44131;BME280;29792;48.726;9.248;2023-04-07T00:01:35;96909.84;;;6.59;100.00
44131;BME280;29792;48.726;9.248;2023-04-07T00:04:00;96908.94;;;6.60;100.00
44131;BME280;29792;48.726;9.248;2023-04-07T00:06:26;96902.94;;;6.61;100.00
44131;BME280;29792;48.726;9.248;2023-04-07T00:08:51;96905.47;;;6.61;100.00
44131;BME280;29792;48.726;9.248;2023-04-07T00:11:16;96902.13;;;6.60;100.00
44131;BME280;29792;48.726;9.248;2023-04-07T00:13:42;96895.38;;;6.59;100.00
44131;BME280;29792;48.726;9.248;2023-04-07T00:16:07;96895.28;;;6.61;100.00
44131;BME280;29792;48.726;9.248;2023-04-07T00:18:32;96892.75;;;6.61;100.00
44131;BME280;29792;48.726;9.248;2023-04-07T00:20:57;96894.47;;;6.60;100.00
44131;BME280;29792;48.726;9.248;2023-04-07T00:23:23;96890.22;;;6.61;100.00
44131;BME280;29792;48.726;9.248;2023-04-07T00:25:48;96886.94;;;6.59;100.00
44131;BME280;29792;48.726;9.248;2023-04-07T00:28:13;96882.97;;;6.55;100.00
44131;BME280;29792;48.726;9.248;2023-04-07T00:30:39;96878.91;;;6.52;100.00
44131;BME280;29792;48.726;9.248;2023-04-07T00:33:04;96877.50;;;6.48;100.00
44131;BME280;29792;48.726;9.248;2023-04-07T00:35:29;96876.78;;;6.46;100.00
44131;BME280;29792;48.726;9.248;2023-04-07T00:37:55;96870.97;;;6.44;100.00
44131;BME280;29792;48.726;9.248;2023-04-07T00:40:21;96875.31;;;6.42;100.00
44131;BME280;29792;48.726;9.248;2023-04-07T00:42:46;96872.19;;;6.38;100.00
44131;BME280;29792;48.726;9.248;2023-04-07T00:45:11;96876.47;;;6.38;100.00
44131;BME280;29792;48.726;9.248;2023-04-07T00:47:37;96865.56;;;6.36;100.00
44131;BME280;29792;48.726;9.248;2023-04-07T00:50:06;96861.47;;;6.33;100.00
44131;BME280;29792;48.726;9.248;2023-04-07T00:52:32;96865.75;;;6.33;100.00
44131;BME280;29792;48.726;9.248;2023-04-07T00:54:58;96856.53;;;6.32;100.00
44131;BME280;29792;48.726;9.248;2023-04-07T00:57:24;96852.34;;;6.31;100.00
44131;BME280;29792;48.726;9.248;2023-04-07T00:59:50;96846.44;;;6.30;100.00
44131;BME280;29792;48.726;9.248;2023-04-07T01:02:20;96845.63;;;6.30;100.00
44131;BME280;29792;48.726;9.248;2023-04-07T01:10:20;96832.00;;;6.31;100.00
44131;BME280;29792;48.726;9.248;2023-04-07T01:13:14;96835.34;;;6.31;100.00
44131;BME280;29792;48.726;9.248;2023-04-07T01:15:44;96833.50;;;6.33;100.00
44131;BME280;29792;48.726;9.248;2023-04-07T01:18:16;96826.59;;;6.35;100.00
44131;BME280;29792;48.726;9.248;2023-04-07T01:20:45;96828.03;;;6.39;100.00
44131;BME280;29792;48.726;9.248;2023-04-07T01:23:22;96822.13;;;6.39;100.00
44131;BME280;29792;48.726;9.248;2023-04-07T01:28:43;96816.72;;;6.43;100.00
44131;BME280;29792;48.726;9.248;2023-04-07T01:31:11;96815.72;;;6.46;100.00
44131;BME280;29792;48.726;9.248;2023-04-07T01:33:38;96817.44;;;6.45;100.00
44131;BME280;29792;48.726;9.248;2023-04-07T01:36:06;96813.25;;;6.44;100.00
44131;BME280;29792;48.726;9.248;2023-04-07T01:38:33;96810.72;;;6.44;100.00
44131;BME280;29792;48.726;9.248;2023-04-07T01:40:59;96810.72;;;6.44;100.00
44131;BME280;29792;48.726;9.248;2023-04-07T01:43:26;96809.00;;;6.45;100.00
44131;BME280;29792;48.726;9.248;2023-04-07T01:45:53;96809.00;;;6.45;100.00
44131;BME280;29792;48.726;9.248;2023-04-07T01:48:19;96806.44;;;6.45;100.00
44131;BME280;29792;48.726;9.248;2023-04-07T01:50:45;96796.38;;;6.43;100.00
44131;BME280;29792;48.726;9.248;2023-04-07T01:53:10;96800.53;;;6.44;100.00
44131;BME280;29792;48.726;9.248;2023-04-07T01:55:36;96792.19;;;6.42;100.00
44131;BME280;29792;48.726;9.248;2023-04-07T01:58:05;96798.19;;;6.41;100.00
44131;BME280;29792;48.726;9.248;2023-04-07T02:00:30;96795.66;;;6.41;100.00
44131;BME280;29792;48.726;9.248;2023-04-07T02:02:58;96790.56;;;6.41;100.00
44131;BME280;29792;48.726;9.248;2023-04-07T02:05:29;96795.66;;;6.41;100.00
44131;BME280;29792;48.726;9.248;2023-04-07T02:07:59;96792.28;;;6.41;100.00
44131;BME280;29792;48.726;9.248;2023-04-07T02:10:27;96794.03;;;6.40;100.00
44131;BME280;29792;48.726;9.248;2023-04-07T02:12:54;96793.22;;;6.40;100.00
44131;BME280;29792;48.726;9.248;2023-04-07T02:15:21;96788.84;;;6.42;100.00
44131;BME280;29792;48.726;9.248;2023-04-07T02:17:51;96794.75;;;6.42;100.00
44131;BME280;29792;48.726;9.248;2023-04-07T02:20:17;96787.09;;;6.42;100.00
44131;BME280;29792;48.726;9.248;2023-04-07T02:22:44;96783.66;;;6.43;100.00
44131;BME280;29792;48.726;9.248;2023-04-07T02:25:23;96779.47;;;6.42;100.00
44131;BME280;29792;48.726;9.248;2023-04-07T02:27:49;96780.91;;;6.46;100.00
44131;BME280;29792;48.726;9.248;2023-04-07T02:30:14;96778.94;;;6.50;100.00
44131;BME280;29792;48.726;9.248;2023-04-07T02:32:40;96777.13;;;6.52;100.00
44131;BME280;29792;48.726;9.248;2023-04-07T02:35:06;96769.41;;;6.54;100.00
44131;BME280;29792;48.726;9.248;2023-04-07T02:37:31;96776.03;;;6.56;100.00
44131;BME280;29792;48.726;9.248;2023-04-07T02:39:56;96764.78;;;6.59;100.00
44131;BME280;29792;48.726;9.248;2023-04-07T02:42:21;96767.34;;;6.59;100.00
44131;BME280;29792;48.726;9.248;2023-04-07T02:44:47;96764.78;;;6.59;100.00
44131;BME280;29792;48.726;9.248;2023-04-07T02:47:12;96762.25;;;6.59;100.00
44131;BME280;29792;48.726;9.248;2023-04-07T02:49:37;96758.06;;;6.58;100.00
44131;BME280;29792;48.726;9.248;2023-04-07T02:52:03;96759.94;;;6.56;100.00
44131;BME280;29792;48.726;9.248;2023-04-07T02:54:28;96758.22;;;6.56;100.00
44131;BME280;29792;48.726;9.248;2023-04-07T02:56:53;96749.75;;;6.56;100.00
44131;BME280;29792;48.726;9.248;2023-04-07T02:59:18;96750.56;;;6.56;100.00
44131;BME280;29792;48.726;9.248;2023-04-07T03:01:44;96751.38;;;6.57;100.00
44131;BME280;29792;48.726;9.248;2023-04-07T03:04:09;96744.53;;;6.57;100.00
44131;BME280;29792;48.726;9.248;2023-04-07T03:06:34;96747.91;;;6.58;100.00
44131;BME280;29792;48.726;9.248;2023-04-07T03:08:59;96740.16;;;6.59;100.00
44131;BME280;29792;48.726;9.248;2023-04-07T03:11:25;96744.25;;;6.62;100.00
44131;BME280;29792;48.726;9.248;2023-04-07T03:13:50;96736.41;;;6.65;100.00
44131;BME280;29792;48.726;9.248;2023-04-07T03:16:15;96742.09;;;6.68;100.00
44131;BME280;29792;48.726;9.248;2023-04-07T03:18:41;96738.53;;;6.71;100.00
44131;BME280;29792;48.726;9.248;2023-04-07T03:21:06;96731.47;;;6.74;100.00
44131;BME280;29792;48.726;9.248;2023-04-07T03:23:31;96729.63;;;6.76;100.00
44131;BME280;29792;48.726;9.248;2023-04-07T03:25:56;96726.19;;;6.77;100.00
44131;BME280;29792;48.726;9.248;2023-04-07T03:28:22;96733.63;;;6.80;100.00
44131;BME280;29792;48.726;9.248;2023-04-07T03:30:47;96727.56;;;6.81;100.00
44131;BME280;29792;48.726;9.248;2023-04-07T03:33:12;96732.56;;;6.83;100.00
44131;BME280;29792;48.726;9.248;2023-04-07T03:35:38;96729.00;;;6.85;100.00
44131;BME280;29792;48.726;9.248;2023-04-07T03:38:03;96730.63;;;6.86;100.00
44131;BME280;29792;48.726;9.248;2023-04-07T03:40:28;96726.03;;;6.92;100.00
44131;BME280;29792;48.726;9.248;2023-04-07T03:42:54;96727.66;;;6.93;100.00
44131;BME280;29792;48.726;9.248;2023-04-07T03:45:19;96719.91;;;6.94;100.00
44131;BME280;29792;48.726;9.248;2023-04-07T03:47:44;96724.09;;;6.95;100.00
44131;BME280;29792;48.726;9.248;2023-04-07T03:50:09;96727.56;;;6.94;100.00
44131;BME280;29792;48.726;9.248;2023-04-07T03:52:35;96714.91;;;6.93;100.00
44131;BME280;29792;48.726;9.248;2023-04-07T03:55:00;96714.91;;;6.93;100.00
44131;BME280;29792;48.726;9.248;2023-04-07T03:57:25;96712.38;;;6.93;100.00
44131;BME280;29792;48.726;9.248;2023-04-07T03:59:51;96714.91;;;6.93;100.00
44131;BME280;29792;48.726;9.248;2023-04-07T04:02:17;96716.88;;;6.89;100.00
44131;BME280;29792;48.726;9.248;2023-04-07T04:04:42;96714.44;;;6.87;100.00
44131;BME280;29792;48.726;9.248;2023-04-07T04:07:07;96712.00;;;6.86;100.00
44131;BME280;29792;48.726;9.248;2023-04-07T04:09:33;96713.84;;;6.84;100.00
44131;BME280;29792;48.726;9.248;2023-04-07T04:11:58;96713.13;;;6.82;100.00
44131;BME280;29792;48.726;9.248;2023-04-07T04:14:23;96714.06;;;6.81;100.00
44131;BME280;29792;48.726;9.248;2023-04-07T04:16:48;96706.44;;;6.81;100.00
44131;BME280;29792;48.726;9.248;2023-04-07T04:19:14;96704.66;;;6.81;100.00
44131;BME280;29792;48.726;9.248;2023-04-07T04:21:39;96704.66;;;6.81;100.00
44131;BME280;29792;48.726;9.248;2023-04-07T04:24:04;96703.75;;;6.82;100.00
44131;BME280;29792;48.726;9.248;2023-04-07T04:26:30;96697.84;;;6.82;100.00
44131;BME280;29792;48.726;9.248;2023-04-07T04:28:55;96702.72;;;6.85;100.00
44131;BME280;29792;48.726;9.248;2023-04-07T04:31:21;96693.25;;;6.87;100.00
44131;BME280;29792;48.726;9.248;2023-04-07T04:33:46;96693.16;;;6.88;100.00
44131;BME280;29792;48.726;9.248;2023-04-07T04:36:11;96698.25;;;6.88;100.00
44131;BME280;29792;48.726;9.248;2023-04-07T04:38:37;96701.47;;;6.90;100.00
44131;BME280;29792;48.726;9.248;2023-04-07T04:41:02;96687.25;;;6.88;100.00
44131;BME280;29792;48.726;9.248;2023-04-07T04:43:27;96695.81;;;6.87;100.00
44131;BME280;29792;48.726;9.248;2023-04-07T04:45:54;96699.28;;;6.86;100.00
44131;BME280;29792;48.726;9.248;2023-04-07T04:48:20;96694.19;;;6.86;100.00
44131;BME280;29792;48.726;9.248;2023-04-07T04:50:45;96701.00;;;6.85;100.00
44131;BME280;29792;48.726;9.248;2023-04-07T04:53:10;96698.34;;;6.87;100.00
44131;BME280;29792;48.726;9.248;2023-04-07T04:55:35;96702.53;;;6.88;100.00
44131;BME280;29792;48.726;9.248;2023-04-07T04:58:01;96700.81;;;6.88;100.00
44131;BME280;29792;48.726;9.248;2023-04-07T05:00:26;96700.91;;;6.87;100.00
44131;BME280;29792;48.726;9.248;2023-04-07T05:02:51;96701.81;;;6.86;100.00
44131;BME280;29792;48.726;9.248;2023-04-07T05:05:17;96701.09;;;6.84;100.00
44131;BME280;29792;48.726;9.248;2023-04-07T05:07:42;96704.56;;;6.83;100.00
44131;BME280;29792;48.726;9.248;2023-04-07T05:10:07;96707.13;;;6.83;100.00
44131;BME280;29792;48.726;9.248;2023-04-07T05:12:33;96704.56;;;6.83;100.00
44131;BME280;29792;48.726;9.248;2023-04-07T05:14:58;96698.66;;;6.82;100.00
44131;BME280;29792;48.726;9.248;2023-04-07T05:17:23;96703.75;;;6.82;100.00
44131;BME280;29792;48.726;9.248;2023-04-07T05:19:49;96701.44;;;6.79;100.00
44131;BME280;29792;48.726;9.248;2023-04-07T05:22:14;96705.63;;;6.80;100.00
44131;BME280;29792;48.726;9.248;2023-04-07T05:24:39;96703.06;;;6.80;100.00
44131;BME280;29792;48.726;9.248;2023-04-07T05:27:05;96702.94;;;6.82;100.00
44131;BME280;29792;48.726;9.248;2023-04-07T05:29:30;96705.38;;;6.83;100.00
44131;BME280;29792;48.726;9.248;2023-04-07T05:31:55;96707.81;;;6.85;100.00
44131;BME280;29792;48.726;9.248;2023-04-07T05:34:20;96710.28;;;6.86;100.00
44131;BME280;29792;48.726;9.248;2023-04-07T05:36:46;96711.09;;;6.87;100.00
44131;BME280;29792;48.726;9.248;2023-04-07T05:39:11;96707.38;;;6.91;100.00
44131;BME280;29792;48.726;9.248;2023-04-07T05:41:36;96707.28;;;6.93;100.00
44131;BME280;29792;48.726;9.248;2023-04-07T05:44:02;96702.91;;;6.95;100.00
44131;BME280;29792;48.726;9.248;2023-04-07T05:46:27;96697.56;;;6.98;100.00
44131;BME280;29792;48.726;9.248;2023-04-07T05:48:53;96696.78;;;6.97;100.00
44131;BME280;29792;48.726;9.248;2023-04-07T05:51:18;96701.66;;;7.00;100.00
44131;BME280;29792;48.726;9.248;2023-04-07T05:53:43;96702.38;;;7.02;100.00
44131;BME280;29792;48.726;9.248;2023-04-07T05:56:09;96701.34;;;7.05;100.00
44131;BME280;29792;48.726;9.248;2023-04-07T05:58:34;96705.50;;;7.06;100.00
44131;BME280;29792;48.726;9.248;2023-04-07T06:00:59;96700.28;;;7.07;100.00
44131;BME280;29792;48.726;9.248;2023-04-07T06:03:25;96710.16;;;7.12;100.00
44131;BME280;29792;48.726;9.248;2023-04-07T06:05:50;96710.63;;;7.17;100.00
44131;BME280;29792;48.726;9.248;2023-04-07T06:08:16;96706.97;;;7.21;100.00
44131;BME280;29792;48.726;9.248;2023-04-07T06:10:41;96715.19;;;7.24;100.00
44131;BME280;29792;48.726;9.248;2023-04-07T06:13:08;96717.44;;;7.29;100.00
44131;BME280;29792;48.726;9.248;2023-04-07T06:15:33;96709.53;;;7.32;100.00
44131;BME280;29792;48.726;9.248;2023-04-07T06:17:59;96709.34;;;7.35;100.00
44131;BME280;29792;48.726;9.248;2023-04-07T06:20:24;96715.94;;;7.38;100.00
44131;BME280;29792;48.726;9.248;2023-04-07T06:22:52;96714.09;;;7.40;100.00
44131;BME280;29792;48.726;9.248;2023-04-07T06:25:17;96711.31;;;7.43;100.00
44131;BME280;29792;48.726;9.248;2023-04-07T06:27:42;96712.84;;;7.45;100.00
44131;BME280;29792;48.726;9.248;2023-04-07T06:30:08;96715.97;;;7.49;100.00
44131;BME280;29792;48.726;9.248;2023-04-07T06:32:33;96713.09;;;7.53;100.00
44131;BME280;29792;48.726;9.248;2023-04-07T06:34:59;96713.69;;;7.57;100.00
44131;BME280;29792;48.726;9.248;2023-04-07T06:37:25;96714.50;;;7.57;100.00
44131;BME280;29792;48.726;9.248;2023-04-07T06:39:50;96712.41;;;7.62;100.00
44131;BME280;29792;48.726;9.248;2023-04-07T06:42:15;96714.53;;;7.69;100.00
44131;BME280;29792;48.726;9.248;2023-04-07T06:44:41;96710.81;;;7.73;100.00
44131;BME280;29792;48.726;9.248;2023-04-07T06:47:06;96716.63;;;7.75;100.00
44131;BME280;29792;48.726;9.248;2023-04-07T06:49:33;96710.50;;;7.77;100.00
44131;BME280;29792;48.726;9.248;2023-04-07T06:51:58;96709.56;;;7.78;100.00
44131;BME280;29792;48.726;9.248;2023-04-07T06:54:23;96713.41;;;7.84;100.00
44131;BME280;29792;48.726;9.248;2023-04-07T06:56:49;96704.59;;;7.88;100.00
44131;BME280;29792;48.726;9.248;2023-04-07T06:59:14;96709.25;;;7.94;100.00
44131;BME280;29792;48.726;9.248;2023-04-07T07:01:40;96705.53;;;7.98;100.00
44131;BME280;29792;48.726;9.248;2023-04-07T07:04:06;96704.38;;;8.02;100.00
44131;BME280;29792;48.726;9.248;2023-04-07T07:06:31;96706.00;;;8.03;100.00
44131;BME280;29792;48.726;9.248;2023-04-07T07:08:57;96707.19;;;8.10;100.00
44131;BME280;29792;48.726;9.248;2023-04-07T07:11:22;96700.69;;;8.17;100.00
44131;BME280;29792;48.726;9.248;2023-04-07T07:13:47;96693.94;;;8.27;100.00
44131;BME280;29792;48.726;9.248;2023-04-07T07:16:13;96699.09;;;8.38;100.00
44131;BME280;29792;48.726;9.248;2023-04-07T07:18:38;96707.66;;;8.49;100.00
44131;BME280;29792;48.726;9.248;2023-04-07T07:21:04;96699.19;;;8.59;100.00
44131;BME280;29792;48.726;9.248;2023-04-07T07:23:29;96701.00;;;8.68;100.00
44131;BME280;29792;48.726;9.248;2023-04-07T07:25:54;96703.94;;;8.75;100.00
44131;BME280;29792;48.726;9.248;2023-04-07T07:28:20;96699.69;;;8.85;100.00
44131;BME280;29792;48.726;9.248;2023-04-07T07:30:46;96709.19;;;8.94;100.00
44131;BME280;29792;48.726;9.248;2023-04-07T07:33:11;96701.06;;;9.00;100.00
44131;BME280;29792;48.726;9.248;2023-04-07T07:35:36;96699.50;;;9.09;100.00
44131;BME280;29792;48.726;9.248;2023-04-07T07:38:02;96709.47;;;9.23;100.00
44131;BME280;29792;48.726;9.248;2023-04-07T07:40:27;96706.75;;;9.36;99.00
44131;BME280;29792;48.726;9.248;2023-04-07T07:42:52;96703.22;;;9.48;98.92
44131;BME280;29792;48.726;9.248;2023-04-07T07:45:18;96715.00;;;9.60;97.40
44131;BME280;29792;48.726;9.248;2023-04-07T07:47:44;96718.44;;;9.70;96.69
44131;BME280;29792;48.726;9.248;2023-04-07T07:50:09;96723.09;;;9.86;96.67
44131;BME280;29792;48.726;9.248;2023-04-07T07:52:34;96723.06;;;9.97;95.22
44131;BME280;29792;48.726;9.248;2023-04-07T07:55:00;96715.56;;;10.15;95.43
44131;BME280;29792;48.726;9.248;2023-04-07T07:57:25;96715.91;;;10.52;95.75
44131;BME280;29792;48.726;9.248;2023-04-07T07:59:51;96714.53;;;10.97;94.84
44131;BME280;29792;48.726;9.248;2023-04-07T08:02:16;96720.38;;;11.38;91.89
44131;BME280;29792;48.726;9.248;2023-04-07T08:04:41;96718.34;;;11.61;89.16
44131;BME280;29792;48.726;9.248;2023-04-07T08:07:07;96711.09;;;11.75;85.77
44131;BME280;29792;48.726;9.248;2023-04-07T08:09:32;96711.28;;;12.01;85.07
44131;BME280;29792;48.726;9.248;2023-04-07T08:11:57;96713.78;;;12.57;82.14
44131;BME280;29792;48.726;9.248;2023-04-07T08:14:23;96720.25;;;13.69;80.15
44131;BME280;29792;48.726;9.248;2023-04-07T08:16:48;96722.91;;;14.63;76.79
44131;BME280;29792;48.726;9.248;2023-04-07T08:19:13;96715.56;;;15.59;71.17
44131;BME280;29792;48.726;9.248;2023-04-07T08:21:39;96723.16;;;15.93;65.99
44131;BME280;29792;48.726;9.248;2023-04-07T08:24:05;96721.06;;;15.72;63.13
44131;BME280;29792;48.726;9.248;2023-04-07T08:26:30;96722.03;;;15.63;63.85
44131;BME280;29792;48.726;9.248;2023-04-07T08:28:56;96724.03;;;16.40;64.08
44131;BME280;29792;48.726;9.248;2023-04-07T08:31:22;96727.59;;;17.71;60.74
44131;BME280;29792;48.726;9.248;2023-04-07T08:33:47;96726.13;;;18.58;56.62
44131;BME280;29792;48.726;9.248;2023-04-07T08:36:17;96725.34;;;19.66;53.68
44131;BME280;29792;48.726;9.248;2023-04-07T08:38:42;96720.78;;;20.51;51.31
44131;BME280;29792;48.726;9.248;2023-04-07T08:41:12;96722.53;;;20.79;47.76
44131;BME280;29792;48.726;9.248;2023-04-07T08:43:41;96720.56;;;20.81;47.14
44131;BME280;29792;48.726;9.248;2023-04-07T08:46:08;96725.88;;;21.07;46.24
44131;BME280;29792;48.726;9.248;2023-04-07T08:48:36;96722.16;;;21.43;44.91
44131;BME280;29792;48.726;9.248;2023-04-07T08:51:06;96719.56;;;21.49;43.08
44131;BME280;29792;48.726;9.248;2023-04-07T08:53:40;96726.00;;;21.53;43.89
44131;BME280;29792;48.726;9.248;2023-04-07T08:56:09;96720.16;;;21.38;43.20
44131;BME280;29792;48.726;9.248;2023-04-07T08:58:36;96724.28;;;21.13;44.84
44131;BME280;29792;48.726;9.248;2023-04-07T09:01:04;96727.69;;;20.66;43.26
44131;BME280;29792;48.726;9.248;2023-04-07T09:03:31;96733.72;;;20.10;44.67
44131;BME280;29792;48.726;9.248;2023-04-07T09:05:59;96731.66;;;19.57;45.92
44131;BME280;29792;48.726;9.248;2023-04-07T09:08:25;96737.38;;;19.31;47.24
44131;BME280;29792;48.726;9.248;2023-04-07T09:10:50;96735.97;;;19.14;46.35
44131;BME280;29792;48.726;9.248;2023-04-07T09:13:15;96740.84;;;19.02;47.97
44131;BME280;29792;48.726;9.248;2023-04-07T09:15:41;96738.81;;;18.83;47.75
44131;BME280;29792;48.726;9.248;2023-04-07T09:18:06;96734.78;;;18.51;46.60
44131;BME280;29792;48.726;9.248;2023-04-07T09:21:00;96732.53;;;18.33;47.34
44131;BME280;29792;48.726;9.248;2023-04-07T09:25:54;96728.72;;;18.58;49.53
44131;BME280;29792;48.726;9.248;2023-04-07T09:28:19;96735.34;;;18.61;48.45
44131;BME280;29792;48.726;9.248;2023-04-07T09:30:52;96735.97;;;18.63;49.38
44131;BME280;29792;48.726;9.248;2023-04-07T09:33:26;96732.50;;;18.71;48.24
44131;BME280;29792;48.726;9.248;2023-04-07T09:35:52;96733.38;;;18.63;48.11
44131;BME280;29792;48.726;9.248;2023-04-07T09:38:17;96732.75;;;18.61;48.76
44131;BME280;29792;48.726;9.248;2023-04-07T09:40:42;96733.81;;;18.66;48.71
44131;BME280;29792;48.726;9.248;2023-04-07T09:43:15;96735.66;;;18.43;46.72
44131;BME280;29792;48.726;9.248;2023-04-07T09:45:44;96725.53;;;18.19;47.76
44131;BME280;29792;48.726;9.248;2023-04-07T09:48:19;96738.66;;;18.03;47.64
44131;BME280;29792;48.726;9.248;2023-04-07T09:50:45;96731.94;;;17.93;49.14
44131;BME280;29792;48.726;9.248;2023-04-07T09:53:14;96729.59;;;17.84;48.34
44131;BME280;29792;48.726;9.248;2023-04-07T09:55:40;96727.75;;;17.70;48.49
44131;BME280;29792;48.726;9.248;2023-04-07T09:58:06;96724.00;;;17.49;49.74
44131;BME280;29792;48.726;9.248;2023-04-07T10:00:34;96718.94;;;17.33;49.78
44131;BME280;29792;48.726;9.248;2023-04-07T10:03:02;96727.94;;;17.14;49.75
44131;BME280;29792;48.726;9.248;2023-04-07T10:05:28;96724.66;;;16.98;50.54
44131;BME280;29792;48.726;9.248;2023-04-07T10:07:53;96722.69;;;17.00;51.79
44131;BME280;29792;48.726;9.248;2023-04-07T10:10:19;96719.41;;;17.06;51.66
44131;BME280;29792;48.726;9.248;2023-04-07T10:12:44;96716.50;;;17.09;51.20
44131;BME280;29792;48.726;9.248;2023-04-07T10:15:12;96717.00;;;17.04;50.68
44131;BME280;29792;48.726;9.248;2023-04-07T10:17:41;96720.75;;;17.02;49.77
44131;BME280;29792;48.726;9.248;2023-04-07T10:20:10;96720.41;;;17.05;50.83
44131;BME280;29792;48.726;9.248;2023-04-07T10:22:36;96715.69;;;17.08;50.72
44131;BME280;29792;48.726;9.248;2023-04-07T10:25:07;96717.53;;;17.00;50.54
44131;BME280;29792;48.726;9.248;2023-04-07T10:27:45;96730.03;;;16.88;50.73
44131;BME280;29792;48.726;9.248;2023-04-07T10:30:18;96727.06;;;16.68;50.43
44131;BME280;29792;48.726;9.248;2023-04-07T10:32:48;96731.31;;;16.37;50.34
44131;BME280;29792;48.726;9.248;2023-04-07T10:35:14;96729.91;;;16.18;51.41
44131;BME280;29792;48.726;9.248;2023-04-07T10:40:33;96727.81;;;15.97;52.84
44131;BME280;29792;48.726;9.248;2023-04-07T10:42:59;96733.97;;;15.96;53.02
44131;BME280;29792;48.726;9.248;2023-04-07T10:48:17;96727.19;;;16.03;53.30
44131;BME280;29792;48.726;9.248;2023-04-07T10:53:32;96732.50;;;16.02;53.07
44131;BME280;29792;48.726;9.248;2023-04-07T10:56:01;96735.75;;;15.96;52.26
44131;BME280;29792;48.726;9.248;2023-04-07T10:58:27;96734.94;;;15.95;52.04
44131;BME280;29792;48.726;9.248;2023-04-07T11:03:22;96733.31;;;16.02;52.05
44131;BME280;29792;48.726;9.248;2023-04-07T11:05:48;96730.25;;;15.91;51.42
44131;BME280;29792;48.726;9.248;2023-04-07T11:08:13;96738.16;;;15.73;51.71
44131;BME280;29792;48.726;9.248;2023-04-07T11:10:39;96734.00;;;15.56;51.42
44131;BME280;29792;48.726;9.248;2023-04-07T11:13:07;96737.47;;;15.39;51.83
44131;BME280;29792;48.726;9.248;2023-04-07T11:15:36;96740.50;;;15.26;52.40
44131;BME280;29792;48.726;9.248;2023-04-07T11:18:09;96734.69;;;15.08;52.82
44131;BME280;29792;48.726;9.248;2023-04-07T11:20:52;96733.50;;;14.94;52.88
44131;BME280;29792;48.726;9.248;2023-04-07T11:23:21;96736.53;;;14.81;53.42
44131;BME280;29792;48.726;9.248;2023-04-07T11:25:50;96734.59;;;14.75;54.27
44131;BME280;29792;48.726;9.248;2023-04-07T11:28:16;96736.94;;;14.69;54.59
44131;BME280;29792;48.726;9.248;2023-04-07T11:30:50;96735.66;;;14.65;55.18
44131;BME280;29792;48.726;9.248;2023-04-07T11:33:18;96735.00;;;14.63;54.87
44131;BME280;29792;48.726;9.248;2023-04-07T11:35:54;96742.25;;;14.59;54.67
44131;BME280;29792;48.726;9.248;2023-04-07T11:38:21;96737.56;;;14.63;55.69
44131;BME280;29792;48.726;9.248;2023-04-07T11:40:46;96737.28;;;14.66;56.19
44131;BME280;29792;48.726;9.248;2023-04-07T11:43:17;96740.97;;;14.63;55.67
44131;BME280;29792;48.726;9.248;2023-04-07T11:45:42;96740.13;;;14.55;55.44
44131;BME280;29792;48.726;9.248;2023-04-07T11:48:31;96746.94;;;14.38;55.46
44131;BME280;29792;48.726;9.248;2023-04-07T11:50:57;96750.22;;;14.22;55.12
44131;BME280;29792;48.726;9.248;2023-04-07T11:53:35;96754.84;;;13.93;53.94
44131;BME280;29792;48.726;9.248;2023-04-07T11:56:08;96749.72;;;13.75;54.62
44131;BME280;29792;48.726;9.248;2023-04-07T11:58:37;96749.72;;;13.57;54.79
44131;BME280;29792;48.726;9.248;2023-04-07T12:01:04;96755.00;;;13.38;54.48
44131;BME280;29792;48.726;9.248;2023-04-07T12:03:34;96755.03;;;13.20;55.20
44131;BME280;29792;48.726;9.248;2023-04-07T12:06:01;96755.19;;;13.09;55.66
44131;BME280;29792;48.726;9.248;2023-04-07T12:08:40;96756.19;;;12.98;55.85
44131;BME280;29792;48.726;9.248;2023-04-07T12:11:06;96757.72;;;12.91;56.27
44131;BME280;29792;48.726;9.248;2023-04-07T12:13:32;96757.47;;;12.85;57.15
44131;BME280;29792;48.726;9.248;2023-04-07T12:15:58;96761.84;;;12.75;58.17
44131;BME280;29792;48.726;9.248;2023-04-07T12:18:23;96766.75;;;12.68;61.24
44131;BME280;29792;48.726;9.248;2023-04-07T12:20:49;96770.31;;;12.57;63.31
44131;BME280;29792;48.726;9.248;2023-04-07T12:23:14;96771.31;;;12.47;64.66
44131;BME280;29792;48.726;9.248;2023-04-07T12:25:40;96769.81;;;12.44;65.38
44131;BME280;29792;48.726;9.248;2023-04-07T12:28:05;96770.66;;;12.35;68.17
44131;BME280;29792;48.726;9.248;2023-04-07T12:30:30;96778.69;;;12.13;70.95
44131;BME280;29792;48.726;9.248;2023-04-07T12:32:56;96779.69;;;11.83;72.79
44131;BME280;29792;48.726;9.248;2023-04-07T12:35:21;96786.00;;;11.50;75.40
44131;BME280;29792;48.726;9.248;2023-04-07T12:37:46;96797.00;;;11.12;77.01
44131;BME280;29792;48.726;9.248;2023-04-07T12:40:12;96799.44;;;10.74;79.50
44131;BME280;29792;48.726;9.248;2023-04-07T12:42:37;96802.44;;;10.27;79.38
44131;BME280;29792;48.726;9.248;2023-04-07T12:45:03;96799.44;;;9.81;81.90
44131;BME280;29792;48.726;9.248;2023-04-07T12:47:28;96799.41;;;9.49;85.30
44131;BME280;29792;48.726;9.248;2023-04-07T12:49:53;96794.13;;;9.30;89.29
44131;BME280;29792;48.726;9.248;2023-04-07T12:52:19;96796.16;;;9.15;92.52
44131;BME280;29792;48.726;9.248;2023-04-07T12:54:44;96796.28;;;9.02;95.02
44131;BME280;29792;48.726;9.248;2023-04-07T12:57:09;96794.78;;;9.00;96.99
44131;BME280;29792;48.726;9.248;2023-04-07T12:59:35;96795.56;;;9.00;99.00
44131;BME280;29792;48.726;9.248;2023-04-07T13:02:01;96798.13;;;9.00;100.00
44131;BME280;29792;48.726;9.248;2023-04-07T13:04:27;96793.00;;;9.00;100.00
44131;BME280;29792;48.726;9.248;2023-04-07T13:06:55;96792.31;;;9.09;100.00
44131;BME280;29792;48.726;9.248;2023-04-07T13:09:20;96801.81;;;9.18;100.00
44131;BME280;29792;48.726;9.248;2023-04-07T13:11:45;96794.47;;;9.25;100.00
44131;BME280;29792;48.726;9.248;2023-04-07T13:14:10;96797.63;;;9.29;100.00
44131;BME280;29792;48.726;9.248;2023-04-07T13:16:36;96787.16;;;9.32;100.00
44131;BME280;29792;48.726;9.248;2023-04-07T13:19:01;96785.97;;;9.36;100.00